Terra Ceia, Florida
Current Conditions -  °F | °C
As of 11:53 PM on Friday 19 Dec 2014 (Local Time) from KSRQ Reporting Station
Clear Clear  
Wind Chill: 54°   Ceiling: Unl
Heat Index: 54°   Visibility: 10mi
Dew Point: 49°   Wind: 6mph
Humidity: 83%   Direction: 100°E
Pressure: 30.07"   Gusts: NA
Location:  27.58°N, 82.58°W
Report Text: KSRQ 200453Z 10005KT 10SM CLR 12/09 A3007 RMK AO2 SLP181 T01220094 402330083
Loading
Personal Weather Stations






























Interactive Weather Map New forecast layout! Learn more

10-Day Weather Forecast

Advertisements
Track Severe Weather on mobile